EDVK/KSF METAR and TAF weather

Enter ICAO airport designator
Station Type Date Time Source
EDVK METAR 2020/01/21 18:50 UTC NOAA

EDVK 211850Z VRB02KT 9000 NSC M02/M02 Q1038


Station Type Date Time Source
EDVK Decoded METAR 2020/01/21 18:50 UTC NOAA

Kassel / Calden, Germany (EDVK) 51-24N 009-23E 283M
Jan 21, 2020 - 01:50 PM EST / 2020.01.21 1850 UTC
Wind: Variable at 2 MPH (2 KT):0
Visibility: 5 mile(s):0
Temperature: 28 F (-2 C)
Dew Point: 28 F (-2 C)
Relative Humidity: 100%
Pressure (altimeter): 30.65 in. Hg (1038 hPa)
ob: EDVK 211850Z VRB02KT 9000 NSC M02/M02 Q1038
cycle: 19

Station Type Date Time Source
EDVK TAF 2011/03/23 07:09 UTC NOAA

TAF COR EDVK 230655Z 2307/2321 30002KT 3500 BR SCT025 PROB30
TEMPO 2307/2309 1400 BCFG
BECMG 2307/2310 01007KT 8000

Example: see airport list